createdAt,value
2022-08-08T00:00:53.665Z,100.00
2022-08-08T00:03:31.372Z,100.00
2022-08-08T00:06:05.609Z,100.00
2022-08-08T00:08:36.967Z,100.00
2022-08-08T00:11:14.834Z,100.00
2022-08-08T00:14:15.399Z,100.00
2022-08-08T00:16:50.202Z,100.00
2022-08-08T00:19:22.217Z,100.00
2022-08-08T00:21:57.872Z,100.00
2022-08-08T00:24:45.300Z,100.00
2022-08-08T00:27:15.942Z,100.00
2022-08-08T00:29:53.065Z,100.00
2022-08-08T00:32:43.218Z,100.00
2022-08-08T00:35:34.256Z,100.00
2022-08-08T00:38:31.477Z,100.00
2022-08-08T00:41:22.116Z,100.00
2022-08-08T00:44:19.928Z,100.00
2022-08-08T00:46:59.479Z,100.00
2022-08-08T00:50:01.096Z,100.00
2022-08-08T00:52:51.486Z,100.00
2022-08-08T00:55:36.312Z,100.00
2022-08-08T00:58:54.376Z,100.00
2022-08-08T01:01:44.790Z,100.00
2022-08-08T01:04:37.320Z,100.00
2022-08-08T01:07:34.376Z,100.00
2022-08-08T01:10:52.395Z,100.00
2022-08-08T01:14:03.584Z,100.00
2022-08-08T01:17:20.194Z,100.00
2022-08-08T01:20:17.182Z,100.00
2022-08-08T01:22:48.802Z,100.00
2022-08-08T01:25:40.987Z,100.00
2022-08-08T01:28:34.974Z,100.00
2022-08-08T01:32:13.588Z,100.00
2022-08-08T01:34:53.571Z,100.00
2022-08-08T01:37:51.019Z,100.00
2022-08-08T01:40:26.418Z,100.00
2022-08-08T01:43:01.519Z,100.00
2022-08-08T01:45:57.511Z,100.00
2022-08-08T01:48:54.680Z,100.00
2022-08-08T01:52:55.207Z,100.00
2022-08-08T01:55:46.331Z,100.00
2022-08-08T01:58:12.640Z,100.00
2022-08-08T02:00:57.481Z,100.00
2022-08-08T02:03:57.875Z,100.00
2022-08-08T02:07:11.099Z,100.00
2022-08-08T02:10:03.388Z,100.00
2022-08-08T02:12:58.047Z,100.00
2022-08-08T02:15:48.029Z,100.00
2022-08-08T02:18:31.694Z,100.00
2022-08-08T02:21:24.223Z,100.00
2022-08-08T02:23:57.549Z,100.00
2022-08-08T02:26:52.476Z,100.00
2022-08-08T02:29:46.646Z,100.00
2022-08-08T02:32:49.443Z,100.00
2022-08-08T02:36:04.032Z,100.00
2022-08-08T02:38:33.373Z,100.00
2022-08-08T02:41:58.428Z,100.00
2022-08-08T02:44:57.334Z,100.00
2022-08-08T02:47:47.099Z,100.00
2022-08-08T02:50:55.670Z,100.00
2022-08-08T02:53:34.968Z,100.00
2022-08-08T02:56:37.544Z,100.00
2022-08-08T02:59:57.763Z,100.00
2022-08-08T03:03:05.175Z,100.00
2022-08-08T03:06:07.259Z,100.00
2022-08-08T03:08:43.087Z,100.00
2022-08-08T03:12:01.464Z,100.00
2022-08-08T03:15:59.841Z,100.00
2022-08-08T03:17:39.451Z,100.00
2022-08-08T03:20:08.208Z,100.00
2022-08-08T03:22:45.839Z,100.00
2022-08-08T03:25:18.712Z,100.00
2022-08-08T03:28:00.482Z,100.00
2022-08-08T03:30:27.790Z,100.00
2022-08-08T03:33:55.385Z,100.00
2022-08-08T03:36:01.031Z,100.00
2022-08-08T03:38:54.915Z,100.00
2022-08-08T03:42:03.999Z,100.00
2022-08-08T03:44:01.692Z,100.00
2022-08-08T03:46:32.226Z,100.00
2022-08-08T03:49:55.129Z,100.00
2022-08-08T03:51:55.510Z,100.00
2022-08-08T03:54:41.188Z,100.00
2022-08-08T03:58:31.722Z,100.00
2022-08-08T04:00:11.255Z,100.00
2022-08-08T04:02:47.320Z,100.00
2022-08-08T04:05:19.207Z,100.00
2022-08-08T04:07:46.755Z,100.00
2022-08-08T04:10:13.613Z,100.00
2022-08-08T04:12:41.459Z,100.00
2022-08-08T04:15:08.752Z,100.00
2022-08-08T04:17:46.777Z,100.00
2022-08-08T04:20:28.825Z,100.00
2022-08-08T04:22:57.138Z,100.00
2022-08-08T04:25:30.032Z,100.00
2022-08-08T04:28:02.452Z,100.00
2022-08-08T04:30:47.862Z,100.00
2022-08-08T04:33:15.496Z,100.00
2022-08-08T04:35:50.817Z,100.00
2022-08-08T04:38:21.196Z,100.00
2022-08-08T04:40:51.539Z,100.00
2022-08-08T04:43:22.722Z,100.00
2022-08-08T04:45:59.457Z,100.00
2022-08-08T04:48:26.469Z,100.00
2022-08-08T04:50:53.303Z,100.00
2022-08-08T04:54:36.540Z,100.00
2022-08-08T04:56:07.438Z,100.00
2022-08-08T04:58:34.287Z,100.00
2022-08-08T05:01:08.788Z,100.00
2022-08-08T05:04:10.053Z,100.00
2022-08-08T05:06:25.631Z,100.00
2022-08-08T05:08:55.760Z,100.00
2022-08-08T05:11:26.022Z,100.00
2022-08-08T05:13:57.859Z,100.00
2022-08-08T05:16:53.368Z,100.00
2022-08-08T05:20:10.353Z,100.00
2022-08-08T05:22:10.553Z,100.00
2022-08-08T05:24:38.664Z,100.00
2022-08-08T05:27:06.275Z,100.00
2022-08-08T05:29:36.003Z,100.00
2022-08-08T05:32:07.655Z,100.00
2022-08-08T05:34:49.581Z,100.00
2022-08-08T05:37:23.389Z,100.00
2022-08-08T05:40:07.403Z,100.00
2022-08-08T05:42:45.612Z,100.00
2022-08-08T05:45:25.372Z,100.00
2022-08-08T05:48:08.051Z,100.00
2022-08-08T05:50:36.422Z,100.00
2022-08-08T05:53:54.178Z,100.00
2022-08-08T05:56:10.065Z,100.00
2022-08-08T05:58:53.735Z,100.00
2022-08-08T06:01:52.449Z,100.00
2022-08-08T06:04:23.251Z,100.00
2022-08-08T06:06:56.510Z,100.00
2022-08-08T06:09:58.754Z,100.00
2022-08-08T06:12:30.558Z,100.00
2022-08-08T06:15:02.802Z,100.00
2022-08-08T06:18:18.603Z,100.00
2022-08-08T06:20:20.775Z,100.00
2022-08-08T06:22:49.259Z,100.00
2022-08-08T06:25:16.138Z,100.00
2022-08-08T06:27:56.305Z,100.00
2022-08-08T06:30:28.258Z,100.00
2022-08-08T06:33:01.146Z,100.00
2022-08-08T06:36:08.417Z,100.00
2022-08-08T06:38:27.554Z,100.00
2022-08-08T06:41:08.436Z,100.00
2022-08-08T06:43:56.959Z,93.31
2022-08-08T06:46:24.349Z,94.09
2022-08-08T06:48:51.199Z,96.88
2022-08-08T06:51:20.709Z,88.90
2022-08-08T06:53:50.987Z,90.54
2022-08-08T06:56:24.449Z,89.29
2022-08-08T06:58:53.110Z,80.74
2022-08-08T07:02:18.235Z,80.28
2022-08-08T07:04:38.844Z,88.08
2022-08-08T07:07:11.461Z,80.97
2022-08-08T07:09:59.416Z,73.76
2022-08-08T07:12:39.931Z,75.23
2022-08-08T07:15:23.466Z,80.15
2022-08-08T07:18:36.697Z,78.99
2022-08-08T07:20:52.248Z,74.81
2022-08-08T07:23:23.343Z,80.19
2022-08-08T07:25:54.611Z,77.98
2022-08-08T07:28:31.559Z,77.06
2022-08-08T07:30:59.332Z,84.76
2022-08-08T07:33:26.607Z,84.78
2022-08-08T07:35:55.288Z,81.70
2022-08-08T07:38:25.596Z,78.25
2022-08-08T07:40:59.048Z,74.13
2022-08-08T07:43:36.990Z,69.30
2022-08-08T07:46:23.682Z,68.15
2022-08-08T07:48:51.864Z,72.28
2022-08-08T07:51:24.418Z,67.52
2022-08-08T07:54:26.732Z,61.89
2022-08-08T07:56:55.467Z,60.66
2022-08-08T07:59:25.446Z,62.28
2022-08-08T08:02:34.952Z,61.69
2022-08-08T08:04:49.152Z,60.27
2022-08-08T08:07:26.087Z,64.50
2022-08-08T08:10:03.269Z,61.96
2022-08-08T08:12:41.415Z,61.06
2022-08-08T08:15:15.126Z,64.45
2022-08-08T08:17:48.377Z,58.16
2022-08-08T08:20:18.514Z,60.31
2022-08-08T08:22:47.413Z,58.19
2022-08-08T08:25:16.919Z,57.15
2022-08-08T08:28:02.912Z,57.34
2022-08-08T08:30:29.819Z,56.91
2022-08-08T08:32:56.602Z,55.99
2022-08-08T08:35:29.805Z,59.38
2022-08-08T08:38:17.676Z,58.12
2022-08-08T08:40:48.593Z,58.88
2022-08-08T08:43:18.684Z,58.38
2022-08-08T08:45:48.559Z,59.00
2022-08-08T08:48:19.234Z,58.95
2022-08-08T08:50:52.285Z,58.10
2022-08-08T08:53:55.195Z,59.27
2022-08-08T08:56:07.880Z,59.21
2022-08-08T08:58:42.296Z,59.74
2022-08-08T09:01:15.313Z,59.54
2022-08-08T09:03:47.906Z,58.01
2022-08-08T09:06:34.149Z,58.81
2022-08-08T09:09:26.661Z,60.29
2022-08-08T09:12:07.631Z,59.96
2022-08-08T09:14:35.616Z,58.31
2022-08-08T09:17:17.391Z,59.51
2022-08-08T09:21:58.841Z,58.26
2022-08-08T09:22:35.790Z,60.25
2022-08-08T09:25:04.549Z,61.48
2022-08-08T09:27:56.389Z,62.23
2022-08-08T09:30:20.187Z,64.10
2022-08-08T09:33:54.527Z,63.09
2022-08-08T09:35:49.573Z,63.12
2022-08-08T09:38:53.132Z,64.26
2022-08-08T09:41:54.674Z,61.63
2022-08-08T09:44:34.417Z,62.80
2022-08-08T09:48:02.617Z,61.60
2022-08-08T09:49:56.487Z,61.69
2022-08-08T09:52:55.451Z,61.31
2022-08-08T09:55:31.157Z,60.99
2022-08-08T09:58:08.512Z,63.82
2022-08-08T10:00:50.036Z,63.51
2022-08-08T10:03:28.295Z,63.68
2022-08-08T10:05:58.745Z,64.34
2022-08-08T10:08:30.727Z,63.86
2022-08-08T10:11:01.161Z,64.59
2022-08-08T10:13:35.424Z,66.85
2022-08-08T10:16:03.768Z,65.56
2022-08-08T10:18:35.367Z,64.12
2022-08-08T10:21:22.598Z,61.77
2022-08-08T10:23:58.014Z,64.03
2022-08-08T10:26:56.640Z,63.05
2022-08-08T10:29:44.015Z,60.69
2022-08-08T10:32:39.200Z,60.48
2022-08-08T10:36:01.922Z,59.62
2022-08-08T10:38:05.821Z,60.80
2022-08-08T10:40:39.067Z,59.20
2022-08-08T10:43:07.025Z,58.38
2022-08-08T10:45:56.572Z,58.05
2022-08-08T10:48:56.009Z,57.14
2022-08-08T10:51:26.634Z,55.75
2022-08-08T10:54:00.195Z,55.28
2022-08-08T10:56:36.325Z,55.31
2022-08-08T10:59:12.175Z,56.18
2022-08-08T11:01:46.681Z,58.68
2022-08-08T11:04:29.626Z,60.70
2022-08-08T11:07:01.004Z,62.29
2022-08-08T11:09:32.312Z,59.44
2022-08-08T11:12:06.092Z,62.87
2022-08-08T11:15:12.820Z,64.51
2022-08-08T11:17:58.165Z,64.79
2022-08-08T11:20:28.871Z,64.73
2022-08-08T11:23:00.979Z,63.68
2022-08-08T11:25:52.962Z,62.75
2022-08-08T11:28:29.432Z,63.39
2022-08-08T11:30:59.886Z,64.70
2022-08-08T11:33:51.681Z,64.14
2022-08-08T11:36:15.238Z,67.76
2022-08-08T11:38:53.915Z,66.53
2022-08-08T11:41:24.429Z,65.77
2022-08-08T11:43:53.890Z,62.18
2022-08-08T11:46:26.119Z,64.27
2022-08-08T11:48:55.772Z,65.28
2022-08-08T11:51:29.526Z,65.18
2022-08-08T11:54:04.561Z,67.92
2022-08-08T11:56:42.104Z,69.17
2022-08-08T11:59:11.846Z,70.80
2022-08-08T12:01:38.811Z,67.52
2022-08-08T12:04:08.297Z,67.98
2022-08-08T12:06:35.092Z,66.07
2022-08-08T12:09:09.743Z,65.04
2022-08-08T12:11:44.289Z,65.45
2022-08-08T12:14:22.231Z,65.27
2022-08-08T12:16:53.243Z,64.98
2022-08-08T12:19:38.009Z,65.85
2022-08-08T12:22:12.990Z,63.74
2022-08-08T12:24:54.260Z,63.90
2022-08-08T12:27:26.535Z,63.66
2022-08-08T12:29:59.113Z,68.08
2022-08-08T12:32:26.474Z,68.73
2022-08-08T12:35:04.174Z,70.25
2022-08-08T12:37:41.462Z,65.92
2022-08-08T12:40:23.084Z,66.43
2022-08-08T12:42:52.343Z,67.32
2022-08-08T12:45:58.995Z,63.46
2022-08-08T12:48:35.735Z,65.26
2022-08-08T12:51:04.855Z,66.21
2022-08-08T12:53:37.982Z,68.32
2022-08-08T12:56:19.258Z,68.06
2022-08-08T12:58:52.230Z,68.65
2022-08-08T13:01:24.799Z,65.45
2022-08-08T13:04:18.857Z,61.59
2022-08-08T13:07:07.687Z,65.13
2022-08-08T13:10:05.030Z,69.58
2022-08-08T13:12:36.179Z,74.49
2022-08-08T13:15:09.748Z,76.52
2022-08-08T13:18:09.989Z,75.34
2022-08-08T13:20:27.481Z,81.78
2022-08-08T13:23:30.255Z,76.74
2022-08-08T13:25:44.095Z,74.29
2022-08-08T13:28:17.621Z,74.68
2022-08-08T13:30:45.361Z,73.58
2022-08-08T13:33:18.574Z,73.17
2022-08-08T13:35:50.129Z,72.40
2022-08-08T13:38:18.280Z,75.61
2022-08-08T13:40:46.021Z,78.66
2022-08-08T13:43:15.885Z,74.26
2022-08-08T13:45:43.483Z,72.28
2022-08-08T13:48:25.130Z,73.50
2022-08-08T13:50:57.580Z,70.34
2022-08-08T13:53:41.258Z,69.00
2022-08-08T13:56:41.642Z,69.23
2022-08-08T13:59:32.768Z,62.79
2022-08-08T14:02:07.260Z,63.07
2022-08-08T14:04:37.510Z,59.99
2022-08-08T14:07:22.946Z,59.98
2022-08-08T14:10:05.496Z,56.40
2022-08-08T14:12:39.619Z,56.99
2022-08-08T14:15:22.484Z,57.89
2022-08-08T14:18:34.983Z,56.42
2022-08-08T14:21:02.340Z,57.06
2022-08-08T14:24:07.709Z,56.07
2022-08-08T14:26:28.602Z,54.91
2022-08-08T14:28:57.993Z,56.25
2022-08-08T14:32:05.818Z,56.25
2022-08-08T14:34:19.360Z,58.22
2022-08-08T14:36:53.521Z,60.38
2022-08-08T14:39:25.056Z,60.21
2022-08-08T14:42:09.560Z,59.75
2022-08-08T14:44:39.447Z,62.25
2022-08-08T14:47:16.906Z,64.13
2022-08-08T14:50:05.935Z,63.53
2022-08-08T14:52:53.345Z,62.33
2022-08-08T14:55:22.610Z,63.82
2022-08-08T14:58:11.230Z,61.88
2022-08-08T15:00:39.682Z,62.46
2022-08-08T15:03:14.269Z,60.49
2022-08-08T15:05:43.067Z,60.75
2022-08-08T15:08:22.466Z,61.95
2022-08-08T15:11:04.793Z,60.31
2022-08-08T15:13:40.327Z,61.36
2022-08-08T15:16:20.387Z,61.53
2022-08-08T15:18:51.502Z,62.14
2022-08-08T15:21:19.539Z,63.58
2022-08-08T15:23:51.387Z,62.49
2022-08-08T15:26:25.548Z,61.14
2022-08-08T15:28:54.061Z,61.56
2022-08-08T15:31:48.998Z,61.39
2022-08-08T15:34:18.651Z,60.96
2022-08-08T15:36:57.431Z,62.66
2022-08-08T15:39:25.742Z,62.53
2022-08-08T15:41:52.815Z,62.39
2022-08-08T15:44:21.052Z,64.62
2022-08-08T15:46:50.756Z,64.87
2022-08-08T15:49:20.630Z,65.36
2022-08-08T15:51:49.870Z,63.40
2022-08-08T15:54:18.782Z,63.87
2022-08-08T15:57:04.234Z,66.60
2022-08-08T16:00:05.177Z,72.28
2022-08-08T16:02:21.808Z,74.19
2022-08-08T16:04:58.766Z,75.46
2022-08-08T16:07:39.253Z,78.30
2022-08-08T16:13:04.199Z,85.53
2022-08-08T16:13:35.015Z,91.81
2022-08-08T16:15:57.524Z,86.95
2022-08-08T16:18:26.667Z,90.49
2022-08-08T16:20:53.459Z,86.91
2022-08-08T16:23:26.974Z,84.89
2022-08-08T16:25:54.533Z,87.22
2022-08-08T16:28:35.938Z,88.82
2022-08-08T16:31:07.726Z,94.58
2022-08-08T16:33:37.962Z,97.99
2022-08-08T16:36:08.756Z,96.97
2022-08-08T16:38:38.570Z,93.57
2022-08-08T16:41:20.664Z,99.16
2022-08-08T16:43:51.622Z,100.00
2022-08-08T16:46:37.173Z,99.03
2022-08-08T16:49:07.947Z,99.81
2022-08-08T16:55:04.275Z,100.00
2022-08-08T16:55:06.258Z,100.00
2022-08-08T16:57:23.222Z,100.00
2022-08-08T17:00:06.356Z,100.00
2022-08-08T17:02:39.435Z,100.00
2022-08-08T17:05:10.105Z,100.00
2022-08-08T17:07:40.381Z,98.19
2022-08-08T17:10:09.824Z,91.77
2022-08-08T17:12:37.319Z,92.05
2022-08-08T17:15:17.622Z,97.79
2022-08-08T17:18:02.751Z,99.92
2022-08-08T17:20:31.345Z,99.20
2022-08-08T17:23:16.832Z,92.88
2022-08-08T17:25:52.288Z,96.39
2022-08-08T17:28:34.227Z,96.01
2022-08-08T17:31:39.575Z,92.82
2022-08-08T17:34:48.249Z,91.00
2022-08-08T17:36:36.978Z,90.25
2022-08-08T17:39:45.828Z,92.65
2022-08-08T17:41:58.618Z,90.06
2022-08-08T17:44:29.697Z,93.59
2022-08-08T17:46:58.120Z,97.15
2022-08-08T17:49:37.974Z,99.09
2022-08-08T17:52:05.475Z,100.00
2022-08-08T17:54:33.838Z,100.00
2022-08-08T17:57:01.361Z,100.00
2022-08-08T17:59:30.462Z,100.00
2022-08-08T18:02:04.045Z,100.00
2022-08-08T18:04:34.079Z,100.00
2022-08-08T18:08:02.649Z,100.00
2022-08-08T18:09:55.834Z,100.00
2022-08-08T18:12:22.592Z,100.00
2022-08-08T18:14:51.994Z,100.00
2022-08-08T18:17:28.326Z,100.00
2022-08-08T18:20:36.607Z,100.00
2022-08-08T18:22:50.776Z,100.00
2022-08-08T18:25:18.160Z,100.00
2022-08-08T18:27:46.540Z,100.00
2022-08-08T18:30:13.840Z,100.00
2022-08-08T18:32:43.283Z,100.00
2022-08-08T18:35:15.790Z,100.00
2022-08-08T18:37:48.599Z,100.00
2022-08-08T18:40:35.072Z,100.00
2022-08-08T18:43:22.676Z,100.00
2022-08-08T18:46:52.839Z,100.00
2022-08-08T18:48:36.459Z,100.00
2022-08-08T18:51:03.184Z,100.00
2022-08-08T18:54:00.281Z,100.00
2022-08-08T18:56:24.433Z,100.00
2022-08-08T18:58:53.936Z,100.00
2022-08-08T19:02:26.091Z,100.00
2022-08-08T19:04:12.412Z,100.00
2022-08-08T19:06:39.697Z,100.00
2022-08-08T19:09:13.265Z,100.00
2022-08-08T19:11:40.490Z,100.00
2022-08-08T19:14:13.405Z,100.00
2022-08-08T19:16:47.136Z,100.00
2022-08-08T19:19:14.370Z,100.00
2022-08-08T19:21:48.612Z,100.00
2022-08-08T19:24:33.954Z,100.00
2022-08-08T19:27:05.059Z,100.00
2022-08-08T19:29:35.634Z,100.00
2022-08-08T19:32:09.193Z,100.00
2022-08-08T19:34:41.637Z,100.00
2022-08-08T19:37:16.527Z,100.00
2022-08-08T19:39:45.548Z,100.00
2022-08-08T19:42:13.685Z,100.00
2022-08-08T19:44:45.965Z,100.00
2022-08-08T19:47:14.086Z,100.00
2022-08-08T19:49:43.157Z,100.00
2022-08-08T19:55:51.743Z,100.00
2022-08-08T19:58:18.429Z,100.00
2022-08-08T20:00:45.610Z,100.00
2022-08-08T20:03:14.806Z,100.00
2022-08-08T20:06:15.560Z,100.00
2022-08-08T20:08:47.753Z,100.00
2022-08-08T20:11:15.528Z,100.00
2022-08-08T20:14:32.426Z,100.00
2022-08-08T20:16:29.899Z,100.00
2022-08-08T20:18:56.824Z,100.00
2022-08-08T20:21:25.597Z,100.00
2022-08-08T20:23:58.006Z,100.00
2022-08-08T20:26:27.668Z,100.00
2022-08-08T20:28:57.632Z,100.00
2022-08-08T20:31:24.401Z,100.00
2022-08-08T20:34:30.678Z,100.00
2022-08-08T20:36:58.747Z,100.00
2022-08-08T20:39:33.680Z,100.00
2022-08-08T20:42:06.335Z,100.00
2022-08-08T20:44:35.890Z,100.00
2022-08-08T20:47:15.776Z,100.00
2022-08-08T20:49:50.955Z,100.00
2022-08-08T20:52:21.875Z,100.00
2022-08-08T20:54:50.178Z,100.00
2022-08-08T20:57:19.021Z,100.00
2022-08-08T20:59:48.032Z,100.00
2022-08-08T21:02:25.447Z,100.00
2022-08-08T21:04:57.469Z,100.00
2022-08-08T21:07:47.923Z,100.00
2022-08-08T21:10:17.368Z,100.00
2022-08-08T21:12:46.293Z,100.00
2022-08-08T21:15:16.582Z,100.00
2022-08-08T21:18:02.361Z,100.00
2022-08-08T21:20:34.111Z,100.00
2022-08-08T21:23:02.328Z,100.00
2022-08-08T21:25:36.160Z,100.00
2022-08-08T21:28:14.730Z,100.00
2022-08-08T21:30:45.241Z,100.00
2022-08-08T21:33:20.669Z,100.00
2022-08-08T21:36:18.455Z,100.00
2022-08-08T21:38:34.715Z,100.00
2022-08-08T21:41:01.529Z,100.00
2022-08-08T21:43:32.994Z,100.00
2022-08-08T21:48:07.088Z,100.00
2022-08-08T21:48:51.166Z,100.00
2022-08-08T21:52:38.935Z,100.00
2022-08-08T21:54:22.984Z,100.00
2022-08-08T21:56:55.586Z,100.00
2022-08-08T21:59:25.062Z,100.00
2022-08-08T22:01:55.568Z,100.00
2022-08-08T22:04:24.825Z,100.00
2022-08-08T22:06:53.205Z,100.00
2022-08-08T22:09:20.643Z,100.00
2022-08-08T22:12:08.816Z,100.00
2022-08-08T22:14:36.854Z,100.00
2022-08-08T22:17:04.294Z,100.00
2022-08-08T22:20:10.629Z,100.00
2022-08-08T22:22:18.729Z,100.00
2022-08-08T22:24:45.441Z,100.00
2022-08-08T22:27:12.642Z,100.00
2022-08-08T22:29:57.764Z,100.00
2022-08-08T22:32:28.713Z,100.00
2022-08-08T22:34:55.595Z,100.00
2022-08-08T22:37:49.078Z,100.00
2022-08-08T22:40:11.871Z,100.00
2022-08-08T22:42:47.375Z,100.00
2022-08-08T22:45:15.724Z,100.00
2022-08-08T22:47:46.830Z,100.00
2022-08-08T22:50:26.096Z,100.00
2022-08-08T22:54:28.495Z,100.00
2022-08-08T22:55:58.220Z,100.00
2022-08-08T22:58:28.618Z,100.00
2022-08-08T23:00:59.841Z,100.00
2022-08-08T23:03:34.377Z,100.00
2022-08-08T23:06:17.595Z,100.00
2022-08-08T23:08:54.383Z,100.00
2022-08-08T23:11:23.559Z,100.00
2022-08-08T23:14:11.539Z,100.00
2022-08-08T23:16:44.211Z,100.00
2022-08-08T23:19:15.314Z,100.00
2022-08-08T23:21:42.617Z,100.00
2022-08-08T23:24:12.512Z,100.00
2022-08-08T23:26:53.503Z,100.00
2022-08-08T23:29:22.841Z,100.00
2022-08-08T23:31:49.560Z,100.00
2022-08-08T23:34:19.689Z,100.00
2022-08-08T23:36:47.852Z,100.00
2022-08-08T23:39:15.625Z,100.00
2022-08-08T23:41:46.868Z,100.00
2022-08-08T23:44:18.577Z,100.00
2022-08-08T23:49:01.802Z,100.00
2022-08-08T23:49:36.720Z,100.00
2022-08-08T23:52:08.163Z,100.00
2022-08-08T23:54:42.318Z,100.00
2022-08-08T23:57:27.777Z,100.00
